<?xml version="1.0" encoding="UTF-8" standalone="no" ?>
<gpx xmlns="http://www.topografix.com/GPX/1/1" xmlns:xsi="http://www.w3.org/2001/XMLSchema-instance" xsi:schemaLocation="http://www.topografix.com/GPX/1/1 http://www.topografix.com/GPX/1/1/gpx.xsd" version="1.1" creator="VisuGPX - https://www.visugpx.com">
  <metadata>
    <name>27-05-2017 Ciney - Dinant (Bel)</name>
    <desc><![CDATA[Itinéraire de détente en vélo électrique (VTC). ]]></desc>
  </metadata>
  <trk>
    <name><![CDATA[Tracé 27 mai 2017 14:38:56]]></name>
    <trkseg>
      <trkpt lat="50.29403" lon="5.09565">
        <ele>244.91652573204</ele>
        <time>2017-05-27T12:38:56Z</time>
      </trkpt>
      <trkpt lat="50.29411" lon="5.09565">
        <ele>263.98690681</ele>
        <time>2017-05-27T12:39:38Z</time>
      </trkpt>
      <trkpt lat="50.29419" lon="5.09565">
        <ele>263.70461200459</ele>
        <time>2017-05-27T12:39:46Z</time>
      </trkpt>
      <trkpt lat="50.29433" lon="5.09587">
        <ele>254.9058015745</ele>
        <time>2017-05-27T12:39:50Z</time>
      </trkpt>
      <trkpt lat="50.2945" lon="5.09621">
        <ele>248.43728184058</ele>
        <time>2017-05-27T12:39:55Z</time>
      </trkpt>
      <trkpt lat="50.29471" lon="5.09637">
        <ele>248.20412720422</ele>
        <time>2017-05-27T12:40:00Z</time>
      </trkpt>
      <trkpt lat="50.2948" lon="5.09652">
        <ele>250.17330621107</ele>
        <time>2017-05-27T12:40:04Z</time>
      </trkpt>
      <trkpt lat="50.29488" lon="5.09654">
        <ele>252.00287617656</ele>
        <time>2017-05-27T12:40:13Z</time>
      </trkpt>
      <trkpt lat="50.2951" lon="5.09625">
        <ele>256.66333197288</ele>
        <time>2017-05-27T12:40:18Z</time>
      </trkpt>
      <trkpt lat="50.29529" lon="5.09598">
        <ele>260.2291662976</ele>
        <time>2017-05-27T12:40:22Z</time>
      </trkpt>
      <trkpt lat="50.29547" lon="5.0957">
        <ele>261.82640601613</ele>
        <time>2017-05-27T12:40:26Z</time>
      </trkpt>
      <trkpt lat="50.2957" lon="5.09536">
        <ele>260.01299718827</ele>
        <time>2017-05-27T12:40:31Z</time>
      </trkpt>
      <trkpt lat="50.29591" lon="5.09506">
        <ele>260.8418428681</ele>
        <time>2017-05-27T12:40:35Z</time>
      </trkpt>
      <trkpt lat="50.2961" lon="5.09478">
        <ele>264.93449225782</ele>
        <time>2017-05-27T12:40:39Z</time>
      </trkpt>
      <trkpt lat="50.29624" lon="5.09457">
        <ele>267.10838214028</ele>
        <time>2017-05-27T12:40:43Z</time>
      </trkpt>
      <trkpt lat="50.29627" lon="5.09442">
        <ele>266.90746057958</ele>
        <time>2017-05-27T12:40:47Z</time>
      </trkpt>
      <trkpt lat="50.29618" lon="5.09407">
        <ele>258.49712383599</ele>
        <time>2017-05-27T12:40:52Z</time>
      </trkpt>
      <trkpt lat="50.29621" lon="5.09374">
        <ele>256.06640868189</ele>
        <time>2017-05-27T12:40:56Z</time>
      </trkpt>
      <trkpt lat="50.29634" lon="5.09341">
        <ele>255.93469280762</ele>
        <time>2017-05-27T12:41:00Z</time>
      </trkpt>
      <trkpt lat="50.29646" lon="5.09307">
        <ele>254.09033616494</ele>
        <time>2017-05-27T12:41:04Z</time>
      </trkpt>
      <trkpt lat="50.29658" lon="5.09276">
        <ele>250.60452448254</ele>
        <time>2017-05-27T12:41:09Z</time>
      </trkpt>
      <trkpt lat="50.29652" lon="5.09246">
        <ele>250.69441216151</ele>
        <time>2017-05-27T12:41:13Z</time>
      </trkpt>
      <trkpt lat="50.29641" lon="5.09201">
        <ele>249.10042767389</ele>
        <time>2017-05-27T12:41:18Z</time>
      </trkpt>
      <trkpt lat="50.29639" lon="5.09161">
        <ele>246.33849079821</ele>
        <time>2017-05-27T12:41:22Z</time>
      </trkpt>
      <trkpt lat="50.29649" lon="5.09124">
        <ele>244.67159345949</ele>
        <time>2017-05-27T12:41:26Z</time>
      </trkpt>
      <trkpt lat="50.29659" lon="5.09084">
        <ele>243.88282109398</ele>
        <time>2017-05-27T12:41:30Z</time>
      </trkpt>
      <trkpt lat="50.29665" lon="5.09047">
        <ele>243.19927293068</ele>
        <time>2017-05-27T12:41:34Z</time>
      </trkpt>
      <trkpt lat="50.29664" lon="5.09012">
        <ele>241.0038719598</ele>
        <time>2017-05-27T12:41:38Z</time>
      </trkpt>
      <trkpt lat="50.29653" lon="5.08978">
        <ele>237.25153190465</ele>
        <time>2017-05-27T12:41:42Z</time>
      </trkpt>
      <trkpt lat="50.29637" lon="5.08935">
        <ele>233.26872906176</ele>
        <time>2017-05-27T12:41:47Z</time>
      </trkpt>
      <trkpt lat="50.29628" lon="5.0891">
        <ele>231.10395129589</ele>
        <time>2017-05-27T12:41:51Z</time>
      </trkpt>
      <trkpt lat="50.29621" lon="5.08892">
        <ele>230.08114246561</ele>
        <time>2017-05-27T12:41:56Z</time>
      </trkpt>
      <trkpt lat="50.29611" lon="5.08867">
        <ele>228.42990396072</ele>
        <time>2017-05-27T12:42:00Z</time>
      </trkpt>
      <trkpt lat="50.29604" lon="5.08841">
        <ele>227.14885712429</ele>
        <time>2017-05-27T12:42:03Z</time>
      </trkpt>
      <trkpt lat="50.29604" lon="5.08797">
        <ele>226.48203008959</ele>
        <time>2017-05-27T12:42:07Z</time>
      </trkpt>
      <trkpt lat="50.29585" lon="5.08751">
        <ele>227.44365055792</ele>
        <time>2017-05-27T12:42:12Z</time>
      </trkpt>
      <trkpt lat="50.2956" lon="5.08723">
        <ele>227.29173650535</ele>
        <time>2017-05-27T12:42:16Z</time>
      </trkpt>
      <trkpt lat="50.29539" lon="5.08681">
        <ele>226.71325224377</ele>
        <time>2017-05-27T12:42:21Z</time>
      </trkpt>
      <trkpt lat="50.29521" lon="5.08638">
        <ele>226.34150906569</ele>
        <time>2017-05-27T12:42:26Z</time>
      </trkpt>
      <trkpt lat="50.29508" lon="5.08604">
        <ele>227.15836311462</ele>
        <time>2017-05-27T12:42:30Z</time>
      </trkpt>
      <trkpt lat="50.29494" lon="5.08572">
        <ele>228.15105203349</ele>
        <time>2017-05-27T12:42:34Z</time>
      </trkpt>
      <trkpt lat="50.29476" lon="5.08535">
        <ele>229.1651258937</ele>
        <time>2017-05-27T12:42:39Z</time>
      </trkpt>
      <trkpt lat="50.29461" lon="5.08495">
        <ele>230.25651707709</ele>
        <time>2017-05-27T12:42:44Z</time>
      </trkpt>
      <trkpt lat="50.29451" lon="5.0846">
        <ele>231.1646119828</ele>
        <time>2017-05-27T12:42:48Z</time>
      </trkpt>
      <trkpt lat="50.29442" lon="5.08428">
        <ele>233.62717203104</ele>
        <time>2017-05-27T12:42:52Z</time>
      </trkpt>
      <trkpt lat="50.29438" lon="5.08386">
        <ele>235.95058080212</ele>
        <time>2017-05-27T12:42:57Z</time>
      </trkpt>
      <trkpt lat="50.29437" lon="5.08352">
        <ele>237.59133704214</ele>
        <time>2017-05-27T12:43:01Z</time>
      </trkpt>
      <trkpt lat="50.29436" lon="5.08313">
        <ele>239.19597509143</ele>
        <time>2017-05-27T12:43:06Z</time>
      </trkpt>
      <trkpt lat="50.29435" lon="5.08276">
        <ele>240.9258879234</ele>
        <time>2017-05-27T12:43:11Z</time>
      </trkpt>
      <trkpt lat="50.29434" lon="5.08247">
        <ele>242.26373449492</ele>
        <time>2017-05-27T12:43:15Z</time>
      </trkpt>
      <trkpt lat="50.29433" lon="5.08218">
        <ele>243.5131685207</ele>
        <time>2017-05-27T12:43:19Z</time>
      </trkpt>
      <trkpt lat="50.29432" lon="5.08179">
        <ele>245.07036722104</ele>
        <time>2017-05-27T12:43:24Z</time>
      </trkpt>
      <trkpt lat="50.29431" lon="5.08146">
        <ele>245.94525439506</ele>
        <time>2017-05-27T12:43:28Z</time>
      </trkpt>
      <trkpt lat="50.29429" lon="5.08105">
        <ele>247.25459375541</ele>
        <time>2017-05-27T12:43:33Z</time>
      </trkpt>
      <trkpt lat="50.29428" lon="5.08064">
        <ele>248.91378065517</ele>
        <time>2017-05-27T12:43:38Z</time>
      </trkpt>
      <trkpt lat="50.29427" lon="5.08032">
        <ele>250.11003638379</ele>
        <time>2017-05-27T12:43:42Z</time>
      </trkpt>
      <trkpt lat="50.29426" lon="5.08">
        <ele>251.23087034079</ele>
        <time>2017-05-27T12:43:46Z</time>
      </trkpt>
      <trkpt lat="50.29427" lon="5.07958">
        <ele>252.794760699</ele>
        <time>2017-05-27T12:43:51Z</time>
      </trkpt>
      <trkpt lat="50.29429" lon="5.07917">
        <ele>254.41017857632</ele>
        <time>2017-05-27T12:43:56Z</time>
      </trkpt>
      <trkpt lat="50.2943" lon="5.07883">
        <ele>256.19359707428</ele>
        <time>2017-05-27T12:44:00Z</time>
      </trkpt>
      <trkpt lat="50.2943" lon="5.07843">
        <ele>258.19787277317</ele>
        <time>2017-05-27T12:44:05Z</time>
      </trkpt>
      <trkpt lat="50.2943" lon="5.07811">
        <ele>259.45826707595</ele>
        <time>2017-05-27T12:44:09Z</time>
      </trkpt>
      <trkpt lat="50.29428" lon="5.07777">
        <ele>260.76982088272</ele>
        <time>2017-05-27T12:44:13Z</time>
      </trkpt>
      <trkpt lat="50.29427" lon="5.07733">
        <ele>262.28317419626</ele>
        <time>2017-05-27T12:44:18Z</time>
      </trkpt>
      <trkpt lat="50.29425" lon="5.07692">
        <ele>264.2510202669</ele>
        <time>2017-05-27T12:44:23Z</time>
      </trkpt>
      <trkpt lat="50.29422" lon="5.07658">
        <ele>265.31000860154</ele>
        <time>2017-05-27T12:44:27Z</time>
      </trkpt>
      <trkpt lat="50.29416" lon="5.07614">
        <ele>266.84202541468</ele>
        <time>2017-05-27T12:44:32Z</time>
      </trkpt>
      <trkpt lat="50.29408" lon="5.07571">
        <ele>268.29662593325</ele>
        <time>2017-05-27T12:44:37Z</time>
      </trkpt>
      <trkpt lat="50.29402" lon="5.07538">
        <ele>269.28409283334</ele>
        <time>2017-05-27T12:44:41Z</time>
      </trkpt>
      <trkpt lat="50.29394" lon="5.07495">
        <ele>270.24121548096</ele>
        <time>2017-05-27T12:44:46Z</time>
      </trkpt>
      <trkpt lat="50.29387" lon="5.0746">
        <ele>271.04080571993</ele>
        <time>2017-05-27T12:44:50Z</time>
      </trkpt>
      <trkpt lat="50.29377" lon="5.07417">
        <ele>272.06854984861</ele>
        <time>2017-05-27T12:44:55Z</time>
      </trkpt>
      <trkpt lat="50.29368" lon="5.07372">
        <ele>272.92042538543</ele>
        <time>2017-05-27T12:45:00Z</time>
      </trkpt>
      <trkpt lat="50.29361" lon="5.07337">
        <ele>273.81655643471</ele>
        <time>2017-05-27T12:45:04Z</time>
      </trkpt>
      <trkpt lat="50.29352" lon="5.07291">
        <ele>275.0109920746</ele>
        <time>2017-05-27T12:45:09Z</time>
      </trkpt>
      <trkpt lat="50.29345" lon="5.07253">
        <ele>275.42778036058</ele>
        <time>2017-05-27T12:45:13Z</time>
      </trkpt>
      <trkpt lat="50.29336" lon="5.07206">
        <ele>275.97876238455</ele>
        <time>2017-05-27T12:45:18Z</time>
      </trkpt>
      <trkpt lat="50.29328" lon="5.07171">
        <ele>276.58919892592</ele>
        <time>2017-05-27T12:45:22Z</time>
      </trkpt>
      <trkpt lat="50.2932" lon="5.07127">
        <ele>277.20788100774</ele>
        <time>2017-05-27T12:45:27Z</time>
      </trkpt>
      <trkpt lat="50.29312" lon="5.07091">
        <ele>277.74867968132</ele>
        <time>2017-05-27T12:45:31Z</time>
      </trkpt>
      <trkpt lat="50.29303" lon="5.07045">
        <ele>278.1614515738</ele>
        <time>2017-05-27T12:45:36Z</time>
      </trkpt>
      <trkpt lat="50.29294" lon="5.07">
        <ele>278.6144914972</ele>
        <time>2017-05-27T12:45:41Z</time>
      </trkpt>
      <trkpt lat="50.29287" lon="5.06969">
        <ele>278.73361014285</ele>
        <time>2017-05-27T12:45:45Z</time>
      </trkpt>
      <trkpt lat="50.29277" lon="5.06939">
        <ele>278.96349924459</ele>
        <time>2017-05-27T12:45:50Z</time>
      </trkpt>
      <trkpt lat="50.29267" lon="5.06906">
        <ele>279.21369119633</ele>
        <time>2017-05-27T12:45:54Z</time>
      </trkpt>
      <trkpt lat="50.29253" lon="5.06862">
        <ele>278.57734641656</ele>
        <time>2017-05-27T12:45:59Z</time>
      </trkpt>
      <trkpt lat="50.29238" lon="5.0682">
        <ele>277.93573873215</ele>
        <time>2017-05-27T12:46:04Z</time>
      </trkpt>
      <trkpt lat="50.29226" lon="5.06786">
        <ele>278.03058173417</ele>
        <time>2017-05-27T12:46:08Z</time>
      </trkpt>
      <trkpt lat="50.29211" lon="5.06741">
        <ele>277.60573900843</ele>
        <time>2017-05-27T12:46:13Z</time>
      </trkpt>
      <trkpt lat="50.29199" lon="5.06706">
        <ele>277.07713635782</ele>
        <time>2017-05-27T12:46:17Z</time>
      </trkpt>
      <trkpt lat="50.29185" lon="5.06662">
        <ele>276.67129375507</ele>
        <time>2017-05-27T12:46:22Z</time>
      </trkpt>
      <trkpt lat="50.29173" lon="5.06628">
        <ele>276.34996572199</ele>
        <time>2017-05-27T12:46:26Z</time>
      </trkpt>
      <trkpt lat="50.29163" lon="5.06593">
        <ele>276.08504594561</ele>
        <time>2017-05-27T12:46:30Z</time>
      </trkpt>
      <trkpt lat="50.29154" lon="5.06558">
        <ele>275.77284600261</ele>
        <time>2017-05-27T12:46:34Z</time>
      </trkpt>
      <trkpt lat="50.29147" lon="5.06511">
        <ele>275.98725233277</ele>
        <time>2017-05-27T12:46:39Z</time>
      </trkpt>
      <trkpt lat="50.29144" lon="5.06461">
        <ele>276.3349183674</ele>
        <time>2017-05-27T12:46:44Z</time>
      </trkpt>
      <trkpt lat="50.29142" lon="5.06419">
        <ele>276.12673586733</ele>
        <time>2017-05-27T12:46:48Z</time>
      </trkpt>
      <trkpt lat="50.2914" lon="5.06374">
        <ele>275.13913524966</ele>
        <time>2017-05-27T12:46:52Z</time>
      </trkpt>
      <trkpt lat="50.29136" lon="5.0631">
        <ele>272.90686856376</ele>
        <time>2017-05-27T12:46:57Z</time>
      </trkpt>
      <trkpt lat="50.29132" lon="5.06244">
        <ele>270.08872424042</ele>
        <time>2017-05-27T12:47:01Z</time>
      </trkpt>
      <trkpt lat="50.2913" lon="5.06166">
        <ele>269.2886021964</ele>
        <time>2017-05-27T12:47:05Z</time>
      </trkpt>
      <trkpt lat="50.29136" lon="5.0607">
        <ele>267.56714597936</ele>
        <time>2017-05-27T12:47:10Z</time>
      </trkpt>
      <trkpt lat="50.29143" lon="5.05976">
        <ele>264.79729075405</ele>
        <time>2017-05-27T12:47:15Z</time>
      </trkpt>
      <trkpt lat="50.29148" lon="5.05903">
        <ele>261.45748037913</ele>
        <time>2017-05-27T12:47:19Z</time>
      </trkpt>
      <trkpt lat="50.29154" lon="5.05815">
        <ele>257.20811575067</ele>
        <time>2017-05-27T12:47:24Z</time>
      </trkpt>
      <trkpt lat="50.29158" lon="5.05753">
        <ele>254.90122189748</ele>
        <time>2017-05-27T12:47:28Z</time>
      </trkpt>
      <trkpt lat="50.2916" lon="5.05699">
        <ele>253.18496747244</ele>
        <time>2017-05-27T12:47:32Z</time>
      </trkpt>
      <trkpt lat="50.29155" lon="5.05653">
        <ele>250.56411669141</ele>
        <time>2017-05-27T12:47:36Z</time>
      </trkpt>
      <trkpt lat="50.29146" lon="5.05597">
        <ele>247.79696221271</ele>
        <time>2017-05-27T12:47:41Z</time>
      </trkpt>
      <trkpt lat="50.29141" lon="5.05552">
        <ele>246.72670532832</ele>
        <time>2017-05-27T12:47:45Z</time>
      </trkpt>
      <trkpt lat="50.29147" lon="5.05498">
        <ele>246.62362341941</ele>
        <time>2017-05-27T12:47:50Z</time>
      </trkpt>
      <trkpt lat="50.29159" lon="5.05448">
        <ele>246.6522122541</ele>
        <time>2017-05-27T12:47:55Z</time>
      </trkpt>
      <trkpt lat="50.29171" lon="5.05401">
        <ele>247.20618594217</ele>
        <time>2017-05-27T12:48:00Z</time>
      </trkpt>
      <trkpt lat="50.2918" lon="5.05366">
        <ele>247.99890381754</ele>
        <time>2017-05-27T12:48:04Z</time>
      </trkpt>
      <trkpt lat="50.2919" lon="5.05321">
        <ele>249.15203775233</ele>
        <time>2017-05-27T12:48:09Z</time>
      </trkpt>
      <trkpt lat="50.29198" lon="5.05273">
        <ele>249.86225071374</ele>
        <time>2017-05-27T12:48:14Z</time>
      </trkpt>
      <trkpt lat="50.29204" lon="5.05236">
        <ele>248.72615330174</ele>
        <time>2017-05-27T12:48:18Z</time>
      </trkpt>
      <trkpt lat="50.2921" lon="5.05199">
        <ele>247.38093120307</ele>
        <time>2017-05-27T12:48:22Z</time>
      </trkpt>
      <trkpt lat="50.29213" lon="5.05163">
        <ele>246.83293822361</ele>
        <time>2017-05-27T12:48:26Z</time>
      </trkpt>
      <trkpt lat="50.29213" lon="5.05112">
        <ele>247.32255196146</ele>
        <time>2017-05-27T12:48:31Z</time>
      </trkpt>
      <trkpt lat="50.29216" lon="5.05065">
        <ele>248.28220368232</ele>
        <time>2017-05-27T12:48:36Z</time>
      </trkpt>
      <trkpt lat="50.29224" lon="5.05023">
        <ele>248.60545530735</ele>
        <time>2017-05-27T12:48:40Z</time>
      </trkpt>
      <trkpt lat="50.29237" lon="5.04987">
        <ele>248.56003266239</ele>
        <time>2017-05-27T12:48:44Z</time>
      </trkpt>
      <trkpt lat="50.29259" lon="5.04952">
        <ele>249.03277373518</ele>
        <time>2017-05-27T12:48:49Z</time>
      </trkpt>
      <trkpt lat="50.29277" lon="5.04926">
        <ele>248.94804828832</ele>
        <time>2017-05-27T12:48:53Z</time>
      </trkpt>
      <trkpt lat="50.29294" lon="5.04902">
        <ele>248.43018168495</ele>
        <time>2017-05-27T12:48:57Z</time>
      </trkpt>
      <trkpt lat="50.29315" lon="5.04872">
        <ele>247.52962703888</ele>
        <time>2017-05-27T12:49:02Z</time>
      </trkpt>
      <trkpt lat="50.29334" lon="5.04844">
        <ele>247.35615545473</ele>
        <time>2017-05-27T12:49:06Z</time>
      </trkpt>
      <trkpt lat="50.29359" lon="5.04804">
        <ele>246.65772593058</ele>
        <time>2017-05-27T12:49:11Z</time>
      </trkpt>
      <trkpt lat="50.2938" lon="5.04766">
        <ele>245.56697259478</ele>
        <time>2017-05-27T12:49:15Z</time>
      </trkpt>
      <trkpt lat="50.29395" lon="5.04727">
        <ele>245.0910947689</ele>
        <time>2017-05-27T12:49:19Z</time>
      </trkpt>
      <trkpt lat="50.29405" lon="5.04682">
        <ele>244.61478024882</ele>
        <time>2017-05-27T12:49:24Z</time>
      </trkpt>
      <trkpt lat="50.29409" lon="5.04645">
        <ele>244.95275524982</ele>
        <time>2017-05-27T12:49:28Z</time>
      </trkpt>
      <trkpt lat="50.2941" lon="5.04609">
        <ele>245.83393081174</ele>
        <time>2017-05-27T12:49:32Z</time>
      </trkpt>
      <trkpt lat="50.29411" lon="5.04573">
        <ele>246.80624070995</ele>
        <time>2017-05-27T12:49:36Z</time>
      </trkpt>
      <trkpt lat="50.29412" lon="5.04539">
        <ele>247.65766756268</ele>
        <time>2017-05-27T12:49:40Z</time>
      </trkpt>
      <trkpt lat="50.29412" lon="5.045">
        <ele>249.49827369506</ele>
        <time>2017-05-27T12:49:45Z</time>
      </trkpt>
      <trkpt lat="50.29413" lon="5.04465">
        <ele>248.62534503844</ele>
        <time>2017-05-27T12:49:50Z</time>
      </trkpt>
      <trkpt lat="50.29415" lon="5.04437">
        <ele>248.16992127617</ele>
        <time>2017-05-27T12:49:54Z</time>
      </trkpt>
      <trkpt lat="50.29416" lon="5.04411">
        <ele>249.17285180662</ele>
        <time>2017-05-27T12:49:58Z</time>
      </trkpt>
      <trkpt lat="50.29417" lon="5.04381">
        <ele>251.6155987072</ele>
        <time>2017-05-27T12:50:03Z</time>
      </trkpt>
      <trkpt lat="50.29417" lon="5.04358">
        <ele>252.64164084694</ele>
        <time>2017-05-27T12:50:07Z</time>
      </trkpt>
      <trkpt lat="50.29415" lon="5.0433">
        <ele>255.56418463858</ele>
        <time>2017-05-27T12:50:12Z</time>
      </trkpt>
      <trkpt lat="50.29413" lon="5.04301">
        <ele>257.12559297313</ele>
        <time>2017-05-27T12:50:17Z</time>
      </trkpt>
      <trkpt lat="50.29414" lon="5.04281">
        <ele>257.64149831007</ele>
        <time>2017-05-27T12:50:21Z</time>
      </trkpt>
      <trkpt lat="50.29418" lon="5.04254">
        <ele>258.47321530602</ele>
        <time>2017-05-27T12:50:26Z</time>
      </trkpt>
      <trkpt lat="50.29423" lon="5.04234">
        <ele>259.304711222</ele>
        <time>2017-05-27T12:50:30Z</time>
      </trkpt>
      <trkpt lat="50.2943" lon="5.04215">
        <ele>260.14288920042</ele>
        <time>2017-05-27T12:50:34Z</time>
      </trkpt>
      <trkpt lat="50.29442" lon="5.04193">
        <ele>265.39873076879</ele>
        <time>2017-05-27T12:50:39Z</time>
      </trkpt>
      <trkpt lat="50.29457" lon="5.04172">
        <ele>271.54111643558</ele>
        <time>2017-05-27T12:50:44Z</time>
      </trkpt>
      <trkpt lat="50.29471" lon="5.04156">
        <ele>274.07007285392</ele>
        <time>2017-05-27T12:50:48Z</time>
      </trkpt>
      <trkpt lat="50.29491" lon="5.04133">
        <ele>276.47717506905</ele>
        <time>2017-05-27T12:50:53Z</time>
      </trkpt>
      <trkpt lat="50.29514" lon="5.04106">
        <ele>278.04968571341</ele>
        <time>2017-05-27T12:50:58Z</time>
      </trkpt>
      <trkpt lat="50.29531" lon="5.04086">
        <ele>278.8286004092</ele>
        <time>2017-05-27T12:51:02Z</time>
      </trkpt>
      <trkpt lat="50.29549" lon="5.04066">
        <ele>278.81218322377</ele>
        <time>2017-05-27T12:51:06Z</time>
      </trkpt>
      <trkpt lat="50.29566" lon="5.04043">
        <ele>279.06146063418</ele>
        <time>2017-05-27T12:51:10Z</time>
      </trkpt>
      <trkpt lat="50.2958" lon="5.04017">
        <ele>280.18073239737</ele>
        <time>2017-05-27T12:51:14Z</time>
      </trkpt>
      <trkpt lat="50.29592" lon="5.03988">
        <ele>280.68305991949</ele>
        <time>2017-05-27T12:51:18Z</time>
      </trkpt>
      <trkpt lat="50.296" lon="5.03956">
        <ele>281.65304001583</ele>
        <time>2017-05-27T12:51:22Z</time>
      </trkpt>
      <trkpt lat="50.29607" lon="5.03915">
        <ele>283.11254223882</ele>
        <time>2017-05-27T12:51:27Z</time>
      </trkpt>
      <trkpt lat="50.29614" lon="5.03873">
        <ele>284.57796559184</ele>
        <time>2017-05-27T12:51:32Z</time>
      </trkpt>
      <trkpt lat="50.29619" lon="5.03841">
        <ele>285.49818628432</ele>
        <time>2017-05-27T12:51:36Z</time>
      </trkpt>
      <trkpt lat="50.29623" lon="5.03808">
        <ele>286.02022072427</ele>
        <time>2017-05-27T12:51:40Z</time>
      </trkpt>
      <trkpt lat="50.29629" lon="5.0377">
        <ele>287.35161620852</ele>
        <time>2017-05-27T12:51:45Z</time>
      </trkpt>
      <trkpt lat="50.29633" lon="5.03742">
        <ele>290.48035778361</ele>
        <time>2017-05-27T12:51:49Z</time>
      </trkpt>
      <trkpt lat="50.29638" lon="5.03715">
        <ele>291.97234833614</ele>
        <time>2017-05-27T12:51:53Z</time>
      </trkpt>
      <trkpt lat="50.29643" lon="5.03689">
        <ele>293.49439644265</ele>
        <time>2017-05-27T12:51:57Z</time>
      </trkpt>
      <trkpt lat="50.29647" lon="5.03663">
        <ele>293.06184768551</ele>
        <time>2017-05-27T12:52:01Z</time>
      </trkpt>
      <trkpt lat="50.29659" lon="5.03629">
        <ele>292.74044953934</ele>
        <time>2017-05-27T12:52:06Z</time>
      </trkpt>
      <trkpt lat="50.29676" lon="5.03597">
        <ele>291.17650030868</ele>
        <time>2017-05-27T12:52:11Z</time>
      </trkpt>
      <trkpt lat="50.29685" lon="5.03567">
        <ele>290.00154224229</ele>
        <time>2017-05-27T12:52:15Z</time>
      </trkpt>
      <trkpt lat="50.29676" lon="5.03523">
        <ele>287.43381633602</ele>
        <time>2017-05-27T12:52:20Z</time>
      </trkpt>
      <trkpt lat="50.29663" lon="5.03493">
        <ele>287.87150278194</ele>
        <time>2017-05-27T12:52:24Z</time>
      </trkpt>
      <trkpt lat="50.29646" lon="5.03455">
        <ele>287.82891331383</ele>
        <time>2017-05-27T12:52:29Z</time>
      </trkpt>
      <trkpt lat="50.29631" lon="5.0342">
        <ele>287.03315864244</ele>
        <time>2017-05-27T12:52:34Z</time>
      </trkpt>
      <trkpt lat="50.29619" lon="5.0339">
        <ele>286.16579102896</ele>
        <time>2017-05-27T12:52:38Z</time>
      </trkpt>
      <trkpt lat="50.29607" lon="5.0336">
        <ele>284.43592414385</ele>
        <time>2017-05-27T12:52:42Z</time>
      </trkpt>
      <trkpt lat="50.29592" lon="5.03325">
        <ele>283.70276832551</ele>
        <time>2017-05-27T12:52:47Z</time>
      </trkpt>
      <trkpt lat="50.29588" lon="5.03293">
        <ele>283.47211451381</ele>
        <time>2017-05-27T12:52:51Z</time>
      </trkpt>
      <trkpt lat="50.29602" lon="5.0326">
        <ele>282.52554465661</ele>
        <time>2017-05-27T12:52:55Z</time>
      </trkpt>
      <trkpt lat="50.29625" lon="5.03215">
        <ele>280.25488187819</ele>
        <time>2017-05-27T12:53:00Z</time>
      </trkpt>
      <trkpt lat="50.29645" lon="5.03179">
        <ele>277.84398511415</ele>
        <time>2017-05-27T12:53:04Z</time>
      </trkpt>
      <trkpt lat="50.29663" lon="5.03147">
        <ele>275.90771324681</ele>
        <time>2017-05-27T12:53:08Z</time>
      </trkpt>
      <trkpt lat="50.29679" lon="5.03114">
        <ele>274.22926184468</ele>
        <time>2017-05-27T12:53:13Z</time>
      </trkpt>
      <trkpt lat="50.29676" lon="5.03083">
        <ele>273.26329498695</ele>
        <time>2017-05-27T12:53:17Z</time>
      </trkpt>
      <trkpt lat="50.29661" lon="5.0305">
        <ele>271.52723302312</ele>
        <time>2017-05-27T12:53:21Z</time>
      </trkpt>
      <trkpt lat="50.29646" lon="5.0302">
        <ele>269.77101960708</ele>
        <time>2017-05-27T12:53:25Z</time>
      </trkpt>
      <trkpt lat="50.2963" lon="5.02989">
        <ele>268.39851564692</ele>
        <time>2017-05-27T12:53:29Z</time>
      </trkpt>
      <trkpt lat="50.29611" lon="5.02951">
        <ele>267.21695822724</ele>
        <time>2017-05-27T12:53:34Z</time>
      </trkpt>
      <trkpt lat="50.29596" lon="5.02917">
        <ele>267.10304220519</ele>
        <time>2017-05-27T12:53:38Z</time>
      </trkpt>
      <trkpt lat="50.29575" lon="5.02874">
        <ele>266.40509931467</ele>
        <time>2017-05-27T12:53:43Z</time>
      </trkpt>
      <trkpt lat="50.29557" lon="5.0284">
        <ele>266.29194346551</ele>
        <time>2017-05-27T12:53:47Z</time>
      </trkpt>
      <trkpt lat="50.29536" lon="5.02797">
        <ele>265.98602768823</ele>
        <time>2017-05-27T12:53:52Z</time>
      </trkpt>
      <trkpt lat="50.29518" lon="5.02762">
        <ele>265.67710670952</ele>
        <time>2017-05-27T12:53:56Z</time>
      </trkpt>
      <trkpt lat="50.29497" lon="5.0272">
        <ele>265.25319333057</ele>
        <time>2017-05-27T12:54:01Z</time>
      </trkpt>
      <trkpt lat="50.2948" lon="5.02686">
        <ele>265.16074634826</ele>
        <time>2017-05-27T12:54:05Z</time>
      </trkpt>
      <trkpt lat="50.29459" lon="5.02643">
        <ele>265.38976057236</ele>
        <time>2017-05-27T12:54:10Z</time>
      </trkpt>
      <trkpt lat="50.29442" lon="5.0261">
        <ele>266.11101285054</ele>
        <time>2017-05-27T12:54:14Z</time>
      </trkpt>
      <trkpt lat="50.29438" lon="5.02562">
        <ele>266.79959389392</ele>
        <time>2017-05-27T12:54:19Z</time>
      </trkpt>
      <trkpt lat="50.29461" lon="5.02518">
        <ele>265.45130279632</ele>
        <time>2017-05-27T12:54:24Z</time>
      </trkpt>
      <trkpt lat="50.29481" lon="5.02484">
        <ele>264.33669869546</ele>
        <time>2017-05-27T12:54:28Z</time>
      </trkpt>
      <trkpt lat="50.29503" lon="5.02442">
        <ele>263.45083439794</ele>
        <time>2017-05-27T12:54:33Z</time>
      </trkpt>
      <trkpt lat="50.29521" lon="5.02411">
        <ele>262.73110428643</ele>
        <time>2017-05-27T12:54:37Z</time>
      </trkpt>
      <trkpt lat="50.29521" lon="5.02381">
        <ele>262.69099340884</ele>
        <time>2017-05-27T12:54:41Z</time>
      </trkpt>
      <trkpt lat="50.29499" lon="5.02347">
        <ele>262.42110261103</ele>
        <time>2017-05-27T12:54:46Z</time>
      </trkpt>
      <trkpt lat="50.29473" lon="5.02316">
        <ele>262.09855103616</ele>
        <time>2017-05-27T12:54:51Z</time>
      </trkpt>
      <trkpt lat="50.29447" lon="5.02286">
        <ele>261.75418312178</ele>
        <time>2017-05-27T12:54:56Z</time>
      </trkpt>
      <trkpt lat="50.29427" lon="5.02261">
        <ele>261.20162495301</ele>
        <time>2017-05-27T12:55:00Z</time>
      </trkpt>
      <trkpt lat="50.29401" lon="5.0223">
        <ele>260.42824958833</ele>
        <time>2017-05-27T12:55:05Z</time>
      </trkpt>
      <trkpt lat="50.2938" lon="5.02205">
        <ele>259.48431343592</ele>
        <time>2017-05-27T12:55:09Z</time>
      </trkpt>
      <trkpt lat="50.29353" lon="5.02172">
        <ele>258.70506802809</ele>
        <time>2017-05-27T12:55:14Z</time>
      </trkpt>
      <trkpt lat="50.29332" lon="5.02146">
        <ele>258.15676675139</ele>
        <time>2017-05-27T12:55:18Z</time>
      </trkpt>
      <trkpt lat="50.2931" lon="5.02119">
        <ele>257.46886898142</ele>
        <time>2017-05-27T12:55:22Z</time>
      </trkpt>
      <trkpt lat="50.2929" lon="5.02094">
        <ele>257.10317710989</ele>
        <time>2017-05-27T12:55:26Z</time>
      </trkpt>
      <trkpt lat="50.29269" lon="5.0207">
        <ele>256.78118467821</ele>
        <time>2017-05-27T12:55:30Z</time>
      </trkpt>
      <trkpt lat="50.29243" lon="5.02038">
        <ele>256.79568782855</ele>
        <time>2017-05-27T12:55:35Z</time>
      </trkpt>
      <trkpt lat="50.29222" lon="5.02012">
        <ele>256.9696490292</ele>
        <time>2017-05-27T12:55:39Z</time>
      </trkpt>
      <trkpt lat="50.29201" lon="5.01986">
        <ele>257.00190142817</ele>
        <time>2017-05-27T12:55:43Z</time>
      </trkpt>
      <trkpt lat="50.29181" lon="5.01961">
        <ele>257.01948307677</ele>
        <time>2017-05-27T12:55:47Z</time>
      </trkpt>
      <trkpt lat="50.29164" lon="5.01933">
        <ele>257.73080790643</ele>
        <time>2017-05-27T12:55:51Z</time>
      </trkpt>
      <trkpt lat="50.29147" lon="5.01893">
        <ele>259.83453391074</ele>
        <time>2017-05-27T12:55:56Z</time>
      </trkpt>
      <trkpt lat="50.29138" lon="5.01858">
        <ele>259.44716200552</ele>
        <time>2017-05-27T12:56:00Z</time>
      </trkpt>
      <trkpt lat="50.29128" lon="5.01808">
        <ele>258.70091383578</ele>
        <time>2017-05-27T12:56:05Z</time>
      </trkpt>
      <trkpt lat="50.29122" lon="5.01766">
        <ele>260.31891749366</ele>
        <time>2017-05-27T12:56:09Z</time>
      </trkpt>
      <trkpt lat="50.29115" lon="5.0172">
        <ele>261.79887115385</ele>
        <time>2017-05-27T12:56:14Z</time>
      </trkpt>
      <trkpt lat="50.29115" lon="5.01671">
        <ele>263.13236562218</ele>
        <time>2017-05-27T12:56:19Z</time>
      </trkpt>
      <trkpt lat="50.29115" lon="5.01629">
        <ele>262.76311926514</ele>
        <time>2017-05-27T12:56:24Z</time>
      </trkpt>
      <trkpt lat="50.29112" lon="5.01599">
        <ele>263.02216948979</ele>
        <time>2017-05-27T12:56:28Z</time>
      </trkpt>
      <trkpt lat="50.29107" lon="5.01554">
        <ele>264.32303791655</ele>
        <time>2017-05-27T12:56:33Z</time>
      </trkpt>
      <trkpt lat="50.29098" lon="5.01504">
        <ele>263.86171693829</ele>
        <time>2017-05-27T12:56:38Z</time>
      </trkpt>
      <trkpt lat="50.29087" lon="5.01465">
        <ele>264.21895910558</ele>
        <time>2017-05-27T12:56:42Z</time>
      </trkpt>
      <trkpt lat="50.29067" lon="5.01418">
        <ele>264.42942628825</ele>
        <time>2017-05-27T12:56:47Z</time>
      </trkpt>
      <trkpt lat="50.29042" lon="5.01366">
        <ele>263.01359679321</ele>
        <time>2017-05-27T12:56:52Z</time>
      </trkpt>
      <trkpt lat="50.29015" lon="5.01305">
        <ele>260.34304413288</ele>
        <time>2017-05-27T12:56:57Z</time>
      </trkpt>
      <trkpt lat="50.28995" lon="5.01257">
        <ele>258.42767114541</ele>
        <time>2017-05-27T12:57:01Z</time>
      </trkpt>
      <trkpt lat="50.28971" lon="5.01203">
        <ele>256.26827812446</ele>
        <time>2017-05-27T12:57:06Z</time>
      </trkpt>
      <trkpt lat="50.2895" lon="5.01158">
        <ele>253.98592755201</ele>
        <time>2017-05-27T12:57:11Z</time>
      </trkpt>
      <trkpt lat="50.28934" lon="5.01123">
        <ele>252.47141804693</ele>
        <time>2017-05-27T12:57:15Z</time>
      </trkpt>
      <trkpt lat="50.28913" lon="5.01079">
        <ele>251.42224026324</ele>
        <time>2017-05-27T12:57:20Z</time>
      </trkpt>
      <trkpt lat="50.28898" lon="5.01045">
        <ele>251.03047722692</ele>
        <time>2017-05-27T12:57:24Z</time>
      </trkpt>
      <trkpt lat="50.28882" lon="5.01011">
        <ele>250.59561428089</ele>
        <time>2017-05-27T12:57:28Z</time>
      </trkpt>
      <trkpt lat="50.2886" lon="5.00966">
        <ele>250.55331062265</ele>
        <time>2017-05-27T12:57:33Z</time>
      </trkpt>
      <trkpt lat="50.28841" lon="5.00923">
        <ele>250.17297101501</ele>
        <time>2017-05-27T12:57:38Z</time>
      </trkpt>
      <trkpt lat="50.28822" lon="5.0088">
        <ele>249.57035017923</ele>
        <time>2017-05-27T12:57:43Z</time>
      </trkpt>
      <trkpt lat="50.28806" lon="5.00846">
        <ele>249.13648325058</ele>
        <time>2017-05-27T12:57:47Z</time>
      </trkpt>
      <trkpt lat="50.28789" lon="5.00811">
        <ele>248.22684368119</ele>
        <time>2017-05-27T12:57:51Z</time>
      </trkpt>
      <trkpt lat="50.28771" lon="5.00761">
        <ele>247.24036219126</ele>
        <time>2017-05-27T12:57:56Z</time>
      </trkpt>
      <trkpt lat="50.28766" lon="5.00717">
        <ele>246.75141821117</ele>
        <time>2017-05-27T12:58:00Z</time>
      </trkpt>
      <trkpt lat="50.28768" lon="5.0067">
        <ele>247.83953956291</ele>
        <time>2017-05-27T12:58:04Z</time>
      </trkpt>
      <trkpt lat="50.28766" lon="5.0061">
        <ele>248.89603682426</ele>
        <time>2017-05-27T12:58:09Z</time>
      </trkpt>
      <trkpt lat="50.28765" lon="5.00549">
        <ele>247.75776844794</ele>
        <time>2017-05-27T12:58:14Z</time>
      </trkpt>
      <trkpt lat="50.28763" lon="5.00497">
        <ele>245.65177393273</ele>
        <time>2017-05-27T12:58:18Z</time>
      </trkpt>
      <trkpt lat="50.2876" lon="5.00443">
        <ele>243.37730501118</ele>
        <time>2017-05-27T12:58:22Z</time>
      </trkpt>
      <trkpt lat="50.28751" lon="5.00371">
        <ele>241.4590679324</ele>
        <time>2017-05-27T12:58:27Z</time>
      </trkpt>
      <trkpt lat="50.28736" lon="5.00314">
        <ele>240.08552987625</ele>
        <time>2017-05-27T12:58:31Z</time>
      </trkpt>
      <trkpt lat="50.28716" lon="5.00243">
        <ele>237.71067873408</ele>
        <time>2017-05-27T12:58:36Z</time>
      </trkpt>
      <trkpt lat="50.28696" lon="5.00177">
        <ele>234.93573471276</ele>
        <time>2017-05-27T12:58:41Z</time>
      </trkpt>
      <trkpt lat="50.28674" lon="5.00134">
        <ele>233.44964050283</ele>
        <time>2017-05-27T12:58:45Z</time>
      </trkpt>
      <trkpt lat="50.2865" lon="5.00099">
        <ele>232.76120578832</ele>
        <time>2017-05-27T12:58:49Z</time>
      </trkpt>
      <trkpt lat="50.28622" lon="5.00061">
        <ele>231.87958774056</ele>
        <time>2017-05-27T12:58:54Z</time>
      </trkpt>
      <trkpt lat="50.28595" lon="5.00022">
        <ele>231.26721898012</ele>
        <time>2017-05-27T12:58:59Z</time>
      </trkpt>
      <trkpt lat="50.28576" lon="4.99995">
        <ele>232.13604920876</ele>
        <time>2017-05-27T12:59:03Z</time>
      </trkpt>
      <trkpt lat="50.28554" lon="4.99964">
        <ele>233.31920300365</ele>
        <time>2017-05-27T12:59:08Z</time>
      </trkpt>
      <trkpt lat="50.28537" lon="4.9994">
        <ele>234.48997575105</ele>
        <time>2017-05-27T12:59:12Z</time>
      </trkpt>
      <trkpt lat="50.28516" lon="4.9991">
        <ele>235.42667148359</ele>
        <time>2017-05-27T12:59:17Z</time>
      </trkpt>
      <trkpt lat="50.28497" lon="4.99886">
        <ele>236.273269837</ele>
        <time>2017-05-27T12:59:21Z</time>
      </trkpt>
      <trkpt lat="50.28477" lon="4.99862">
        <ele>236.67969193673</ele>
        <time>2017-05-27T12:59:25Z</time>
      </trkpt>
      <trkpt lat="50.28454" lon="4.99835">
        <ele>236.17812437727</ele>
        <time>2017-05-27T12:59:30Z</time>
      </trkpt>
      <trkpt lat="50.28435" lon="4.99815">
        <ele>234.86941087378</ele>
        <time>2017-05-27T12:59:34Z</time>
      </trkpt>
      <trkpt lat="50.2841" lon="4.99786">
        <ele>234.08378642561</ele>
        <time>2017-05-27T12:59:39Z</time>
      </trkpt>
      <trkpt lat="50.28391" lon="4.99762">
        <ele>234.94591293349</ele>
        <time>2017-05-27T12:59:43Z</time>
      </trkpt>
      <trkpt lat="50.28367" lon="4.99735">
        <ele>234.29616480452</ele>
        <time>2017-05-27T12:59:48Z</time>
      </trkpt>
      <trkpt lat="50.2835" lon="4.99717">
        <ele>233.54147601736</ele>
        <time>2017-05-27T12:59:52Z</time>
      </trkpt>
      <trkpt lat="50.28332" lon="4.99696">
        <ele>232.84070402123</ele>
        <time>2017-05-27T12:59:57Z</time>
      </trkpt>
      <trkpt lat="50.28314" lon="4.99675">
        <ele>231.49365180123</ele>
        <time>2017-05-27T13:00:01Z</time>
      </trkpt>
      <trkpt lat="50.2829" lon="4.99648">
        <ele>231.20438855436</ele>
        <time>2017-05-27T13:00:06Z</time>
      </trkpt>
      <trkpt lat="50.28267" lon="4.99618">
        <ele>231.97017325729</ele>
        <time>2017-05-27T13:00:11Z</time>
      </trkpt>
      <trkpt lat="50.28245" lon="4.99582">
        <ele>232.73827206254</ele>
        <time>2017-05-27T13:00:16Z</time>
      </trkpt>
      <trkpt lat="50.2823" lon="4.99551">
        <ele>231.98385389615</ele>
        <time>2017-05-27T13:00:20Z</time>
      </trkpt>
      <trkpt lat="50.28218" lon="4.99518">
        <ele>232.61043684531</ele>
        <time>2017-05-27T13:00:24Z</time>
      </trkpt>
      <trkpt lat="50.28204" lon="4.9948">
        <ele>231.77596023072</ele>
        <time>2017-05-27T13:00:29Z</time>
      </trkpt>
      <trkpt lat="50.28191" lon="4.99442">
        <ele>231.1870289242</ele>
        <time>2017-05-27T13:00:34Z</time>
      </trkpt>
      <trkpt lat="50.28181" lon="4.99415">
        <ele>230.65333643998</ele>
        <time>2017-05-27T13:00:38Z</time>
      </trkpt>
      <trkpt lat="50.2817" lon="4.99384">
        <ele>229.92553819139</ele>
        <time>2017-05-27T13:00:42Z</time>
      </trkpt>
      <trkpt lat="50.28153" lon="4.99348">
        <ele>229.58485942037</ele>
        <time>2017-05-27T13:00:47Z</time>
      </trkpt>
      <trkpt lat="50.28139" lon="4.99324">
        <ele>229.39972406624</ele>
        <time>2017-05-27T13:00:51Z</time>
      </trkpt>
      <trkpt lat="50.28119" lon="4.99295">
        <ele>229.38565649896</ele>
        <time>2017-05-27T13:00:56Z</time>
      </trkpt>
      <trkpt lat="50.281" lon="4.9926">
        <ele>229.64086587611</ele>
        <time>2017-05-27T13:01:01Z</time>
      </trkpt>
      <trkpt lat="50.28084" lon="4.99236">
        <ele>230.54584381049</ele>
        <time>2017-05-27T13:01:05Z</time>
      </trkpt>
      <trkpt lat="50.2806" lon="4.99216">
        <ele>231.77723590331</ele>
        <time>2017-05-27T13:01:10Z</time>
      </trkpt>
      <trkpt lat="50.28039" lon="4.99188">
        <ele>230.64949120737</ele>
        <time>2017-05-27T13:01:15Z</time>
      </trkpt>
      <trkpt lat="50.28019" lon="4.99166">
        <ele>228.970751057</ele>
        <time>2017-05-27T13:01:19Z</time>
      </trkpt>
      <trkpt lat="50.27997" lon="4.99137">
        <ele>224.94316585871</ele>
        <time>2017-05-27T13:01:24Z</time>
      </trkpt>
      <trkpt lat="50.27974" lon="4.99126">
        <ele>224.17716866144</ele>
        <time>2017-05-27T13:01:28Z</time>
      </trkpt>
      <trkpt lat="50.27937" lon="4.99119">
        <ele>220.26623817976</ele>
        <time>2017-05-27T13:01:33Z</time>
      </trkpt>
      <trkpt lat="50.27908" lon="4.99107">
        <ele>216.53095065126</ele>
        <time>2017-05-27T13:01:37Z</time>
      </trkpt>
      <trkpt lat="50.27886" lon="4.99089">
        <ele>215.73733208295</ele>
        <time>2017-05-27T13:01:41Z</time>
      </trkpt>
      <trkpt lat="50.2787" lon="4.99052">
        <ele>214.78543048129</ele>
        <time>2017-05-27T13:01:45Z</time>
      </trkpt>
      <trkpt lat="50.27852" lon="4.99006">
        <ele>212.37485352287</ele>
        <time>2017-05-27T13:01:50Z</time>
      </trkpt>
      <trkpt lat="50.27836" lon="4.98978">
        <ele>212.87781109233</ele>
        <time>2017-05-27T13:01:54Z</time>
      </trkpt>
      <trkpt lat="50.27813" lon="4.98952">
        <ele>213.60913705109</ele>
        <time>2017-05-27T13:01:58Z</time>
      </trkpt>
      <trkpt lat="50.27789" lon="4.98912">
        <ele>211.94712064281</ele>
        <time>2017-05-27T13:02:03Z</time>
      </trkpt>
      <trkpt lat="50.27775" lon="4.98884">
        <ele>209.73776648539</ele>
        <time>2017-05-27T13:02:07Z</time>
      </trkpt>
      <trkpt lat="50.27763" lon="4.98839">
        <ele>207.92838834052</ele>
        <time>2017-05-27T13:02:12Z</time>
      </trkpt>
      <trkpt lat="50.27757" lon="4.98796">
        <ele>207.17931612145</ele>
        <time>2017-05-27T13:02:16Z</time>
      </trkpt>
      <trkpt lat="50.27733" lon="4.98776">
        <ele>208.0806147721</ele>
        <time>2017-05-27T13:02:21Z</time>
      </trkpt>
      <trkpt lat="50.27709" lon="4.98767">
        <ele>209.52758554156</ele>
        <time>2017-05-27T13:02:25Z</time>
      </trkpt>
      <trkpt lat="50.27684" lon="4.98758">
        <ele>210.19789118628</ele>
        <time>2017-05-27T13:02:30Z</time>
      </trkpt>
      <trkpt lat="50.27664" lon="4.98751">
        <ele>209.8476533298</ele>
        <time>2017-05-27T13:02:34Z</time>
      </trkpt>
      <trkpt lat="50.27638" lon="4.98746">
        <ele>207.5489179718</ele>
        <time>2017-05-27T13:02:38Z</time>
      </trkpt>
      <trkpt lat="50.27605" lon="4.98747">
        <ele>206.97615301226</ele>
        <time>2017-05-27T13:02:43Z</time>
      </trkpt>
      <trkpt lat="50.27579" lon="4.98756">
        <ele>206.73320567426</ele>
        <time>2017-05-27T13:02:47Z</time>
      </trkpt>
      <trkpt lat="50.27551" lon="4.98759">
        <ele>207.00043947849</ele>
        <time>2017-05-27T13:02:51Z</time>
      </trkpt>
      <trkpt lat="50.27521" lon="4.98743">
        <ele>208.59746162503</ele>
        <time>2017-05-27T13:02:55Z</time>
      </trkpt>
      <trkpt lat="50.27492" lon="4.98725">
        <ele>207.1567110045</ele>
        <time>2017-05-27T13:02:59Z</time>
      </trkpt>
      <trkpt lat="50.27464" lon="4.98708">
        <ele>203.85726583795</ele>
        <time>2017-05-27T13:03:03Z</time>
      </trkpt>
      <trkpt lat="50.27434" lon="4.98691">
        <ele>204.05980139587</ele>
        <time>2017-05-27T13:03:08Z</time>
      </trkpt>
      <trkpt lat="50.27406" lon="4.98684">
        <ele>202.96115361687</ele>
        <time>2017-05-27T13:03:12Z</time>
      </trkpt>
      <trkpt lat="50.27375" lon="4.98685">
        <ele>199.5195408189</ele>
        <time>2017-05-27T13:03:16Z</time>
      </trkpt>
      <trkpt lat="50.27338" lon="4.98691">
        <ele>197.56722048489</ele>
        <time>2017-05-27T13:03:21Z</time>
      </trkpt>
      <trkpt lat="50.27312" lon="4.9869">
        <ele>199.63532127778</ele>
        <time>2017-05-27T13:03:25Z</time>
      </trkpt>
      <trkpt lat="50.27276" lon="4.98687">
        <ele>205.8229277203</ele>
        <time>2017-05-27T13:03:30Z</time>
      </trkpt>
      <trkpt lat="50.27246" lon="4.98689">
        <ele>205.29523040614</ele>
        <time>2017-05-27T13:03:35Z</time>
      </trkpt>
      <trkpt lat="50.27214" lon="4.98702">
        <ele>199.55630880978</ele>
        <time>2017-05-27T13:03:40Z</time>
      </trkpt>
      <trkpt lat="50.27185" lon="4.98695">
        <ele>194.35968859829</ele>
        <time>2017-05-27T13:03:45Z</time>
      </trkpt>
      <trkpt lat="50.27165" lon="4.98675">
        <ele>192.64166318451</ele>
        <time>2017-05-27T13:03:49Z</time>
      </trkpt>
      <trkpt lat="50.27144" lon="4.9865">
        <ele>192.88228862446</ele>
        <time>2017-05-27T13:03:54Z</time>
      </trkpt>
      <trkpt lat="50.27129" lon="4.98634">
        <ele>194.49212018472</ele>
        <time>2017-05-27T13:03:58Z</time>
      </trkpt>
      <trkpt lat="50.27112" lon="4.98623">
        <ele>196.82243572828</ele>
        <time>2017-05-27T13:04:03Z</time>
      </trkpt>
      <trkpt lat="50.27096" lon="4.98615">
        <ele>198.5832477577</ele>
        <time>2017-05-27T13:04:07Z</time>
      </trkpt>
      <trkpt lat="50.2708" lon="4.98607">
        <ele>200.48013302339</ele>
        <time>2017-05-27T13:04:11Z</time>
      </trkpt>
      <trkpt lat="50.27063" lon="4.986">
        <ele>201.96611553663</ele>
        <time>2017-05-27T13:04:15Z</time>
      </trkpt>
      <trkpt lat="50.27046" lon="4.98592">
        <ele>204.46706462476</ele>
        <time>2017-05-27T13:04:20Z</time>
      </trkpt>
      <trkpt lat="50.27034" lon="4.98585">
        <ele>205.94736254734</ele>
        <time>2017-05-27T13:04:24Z</time>
      </trkpt>
      <trkpt lat="50.27017" lon="4.98569">
        <ele>207.21597908653</ele>
        <time>2017-05-27T13:04:29Z</time>
      </trkpt>
      <trkpt lat="50.27007" lon="4.98552">
        <ele>208.85538514747</ele>
        <time>2017-05-27T13:04:33Z</time>
      </trkpt>
      <trkpt lat="50.26994" lon="4.98529">
        <ele>209.96989528154</ele>
        <time>2017-05-27T13:04:38Z</time>
      </trkpt>
      <trkpt lat="50.26983" lon="4.98512">
        <ele>210.69108836738</ele>
        <time>2017-05-27T13:04:42Z</time>
      </trkpt>
      <trkpt lat="50.26968" lon="4.98492">
        <ele>212.24071397791</ele>
        <time>2017-05-27T13:04:47Z</time>
      </trkpt>
      <trkpt lat="50.26956" lon="4.98476">
        <ele>214.77321577304</ele>
        <time>2017-05-27T13:04:51Z</time>
      </trkpt>
      <trkpt lat="50.26942" lon="4.98458">
        <ele>215.88253181982</ele>
        <time>2017-05-27T13:04:55Z</time>
      </trkpt>
      <trkpt lat="50.26924" lon="4.98435">
        <ele>217.20081718241</ele>
        <time>2017-05-27T13:05:00Z</time>
      </trkpt>
      <trkpt lat="50.2691" lon="4.98415">
        <ele>218.92250642315</ele>
        <time>2017-05-27T13:05:04Z</time>
      </trkpt>
      <trkpt lat="50.2689" lon="4.98389">
        <ele>219.14106191389</ele>
        <time>2017-05-27T13:05:09Z</time>
      </trkpt>
      <trkpt lat="50.26874" lon="4.98367">
        <ele>219.40297635575</ele>
        <time>2017-05-27T13:05:13Z</time>
      </trkpt>
      <trkpt lat="50.26854" lon="4.98341">
        <ele>219.88166189239</ele>
        <time>2017-05-27T13:05:18Z</time>
      </trkpt>
      <trkpt lat="50.2684" lon="4.9832">
        <ele>220.76645954833</ele>
        <time>2017-05-27T13:05:22Z</time>
      </trkpt>
      <trkpt lat="50.26824" lon="4.98286">
        <ele>221.73822866871</ele>
        <time>2017-05-27T13:05:27Z</time>
      </trkpt>
      <trkpt lat="50.26814" lon="4.98258">
        <ele>221.87016355424</ele>
        <time>2017-05-27T13:05:31Z</time>
      </trkpt>
      <trkpt lat="50.26803" lon="4.98222">
        <ele>222.19766491505</ele>
        <time>2017-05-27T13:05:36Z</time>
      </trkpt>
      <trkpt lat="50.26791" lon="4.98188">
        <ele>223.18168327045</ele>
        <time>2017-05-27T13:05:41Z</time>
      </trkpt>
      <trkpt lat="50.26781" lon="4.98161">
        <ele>224.0008097693</ele>
        <time>2017-05-27T13:05:45Z</time>
      </trkpt>
      <trkpt lat="50.26771" lon="4.98135">
        <ele>224.63582921228</ele>
        <time>2017-05-27T13:05:49Z</time>
      </trkpt>
      <trkpt lat="50.26762" lon="4.98108">
        <ele>225.84755820519</ele>
        <time>2017-05-27T13:05:53Z</time>
      </trkpt>
      <trkpt lat="50.26752" lon="4.98082">
        <ele>227.54147485734</ele>
        <time>2017-05-27T13:05:57Z</time>
      </trkpt>
      <trkpt lat="50.26743" lon="4.98055">
        <ele>228.97550829561</ele>
        <time>2017-05-27T13:06:01Z</time>
      </trkpt>
      <trkpt lat="50.26734" lon="4.98027">
        <ele>227.02471301103</ele>
        <time>2017-05-27T13:06:05Z</time>
      </trkpt>
      <trkpt lat="50.26726" lon="4.98">
        <ele>225.06526374391</ele>
        <time>2017-05-27T13:06:09Z</time>
      </trkpt>
      <trkpt lat="50.26718" lon="4.97977">
        <ele>226.18616499772</ele>
        <time>2017-05-27T13:06:13Z</time>
      </trkpt>
      <trkpt lat="50.26712" lon="4.97943">
        <ele>228.74871780069</ele>
        <time>2017-05-27T13:06:18Z</time>
      </trkpt>
      <trkpt lat="50.26703" lon="4.97919">
        <ele>231.51413040904</ele>
        <time>2017-05-27T13:06:22Z</time>
      </trkpt>
      <trkpt lat="50.2669" lon="4.97884">
        <ele>234.48963656562</ele>
        <time>2017-05-27T13:06:26Z</time>
      </trkpt>
      <trkpt lat="50.26675" lon="4.97837">
        <ele>234.8031862254</ele>
        <time>2017-05-27T13:06:31Z</time>
      </trkpt>
      <trkpt lat="50.26662" lon="4.978">
        <ele>231.97214838396</ele>
        <time>2017-05-27T13:06:35Z</time>
      </trkpt>
      <trkpt lat="50.26647" lon="4.97747">
        <ele>227.7809764973</ele>
        <time>2017-05-27T13:06:40Z</time>
      </trkpt>
      <trkpt lat="50.26632" lon="4.97699">
        <ele>225.75895774104</ele>
        <time>2017-05-27T13:06:44Z</time>
      </trkpt>
      <trkpt lat="50.26609" lon="4.97641">
        <ele>224.36664913378</ele>
        <time>2017-05-27T13:06:49Z</time>
      </trkpt>
      <trkpt lat="50.26595" lon="4.97602">
        <ele>224.07800784413</ele>
        <time>2017-05-27T13:06:53Z</time>
      </trkpt>
      <trkpt lat="50.2658" lon="4.97562">
        <ele>224.62129198182</ele>
        <time>2017-05-27T13:06:58Z</time>
      </trkpt>
      <trkpt lat="50.26562" lon="4.97534">
        <ele>225.24124422709</ele>
        <time>2017-05-27T13:07:02Z</time>
      </trkpt>
      <trkpt lat="50.26544" lon="4.97502">
        <ele>223.95523322271</ele>
        <time>2017-05-27T13:07:06Z</time>
      </trkpt>
      <trkpt lat="50.26531" lon="4.97471">
        <ele>224.40355551258</ele>
        <time>2017-05-27T13:07:10Z</time>
      </trkpt>
      <trkpt lat="50.26517" lon="4.97433">
        <ele>225.42990283674</ele>
        <time>2017-05-27T13:07:15Z</time>
      </trkpt>
      <trkpt lat="50.26505" lon="4.97403">
        <ele>226.93931319978</ele>
        <time>2017-05-27T13:07:19Z</time>
      </trkpt>
      <trkpt lat="50.26489" lon="4.97359">
        <ele>226.76667531773</ele>
        <time>2017-05-27T13:07:24Z</time>
      </trkpt>
      <trkpt lat="50.26473" lon="4.97313">
        <ele>226.35624702873</ele>
        <time>2017-05-27T13:07:29Z</time>
      </trkpt>
      <trkpt lat="50.26464" lon="4.97269">
        <ele>226.22774556272</ele>
        <time>2017-05-27T13:07:33Z</time>
      </trkpt>
      <trkpt lat="50.26461" lon="4.97225">
        <ele>226.54510746634</ele>
        <time>2017-05-27T13:07:37Z</time>
      </trkpt>
      <trkpt lat="50.2646" lon="4.97183">
        <ele>226.52020071799</ele>
        <time>2017-05-27T13:07:41Z</time>
      </trkpt>
      <trkpt lat="50.26458" lon="4.97129">
        <ele>227.50934939222</ele>
        <time>2017-05-27T13:07:46Z</time>
      </trkpt>
      <trkpt lat="50.26463" lon="4.97087">
        <ele>228.8081511397</ele>
        <time>2017-05-27T13:07:50Z</time>
      </trkpt>
      <trkpt lat="50.2647" lon="4.97044">
        <ele>230.25498281303</ele>
        <time>2017-05-27T13:07:54Z</time>
      </trkpt>
      <trkpt lat="50.26465" lon="4.97004">
        <ele>232.54050940838</ele>
        <time>2017-05-27T13:07:58Z</time>
      </trkpt>
      <trkpt lat="50.26452" lon="4.96969">
        <ele>235.01178290132</ele>
        <time>2017-05-27T13:08:02Z</time>
      </trkpt>
      <trkpt lat="50.2644" lon="4.96933">
        <ele>236.24787741319</ele>
        <time>2017-05-27T13:08:06Z</time>
      </trkpt>
      <trkpt lat="50.26428" lon="4.96898">
        <ele>235.46452638617</ele>
        <time>2017-05-27T13:08:10Z</time>
      </trkpt>
      <trkpt lat="50.26416" lon="4.96865">
        <ele>234.92364545121</ele>
        <time>2017-05-27T13:08:14Z</time>
      </trkpt>
      <trkpt lat="50.26404" lon="4.96832">
        <ele>234.49577455852</ele>
        <time>2017-05-27T13:08:18Z</time>
      </trkpt>
      <trkpt lat="50.26389" lon="4.96791">
        <ele>235.35877484451</ele>
        <time>2017-05-27T13:08:23Z</time>
      </trkpt>
      <trkpt lat="50.26378" lon="4.96759">
        <ele>236.19503840942</ele>
        <time>2017-05-27T13:08:27Z</time>
      </trkpt>
      <trkpt lat="50.26367" lon="4.96726">
        <ele>237.02935536672</ele>
        <time>2017-05-27T13:08:31Z</time>
      </trkpt>
      <trkpt lat="50.26353" lon="4.96685">
        <ele>238.15640332494</ele>
        <time>2017-05-27T13:08:36Z</time>
      </trkpt>
      <trkpt lat="50.26338" lon="4.96643">
        <ele>239.17039984247</ele>
        <time>2017-05-27T13:08:41Z</time>
      </trkpt>
      <trkpt lat="50.26326" lon="4.9661">
        <ele>240.12006074033</ele>
        <time>2017-05-27T13:08:45Z</time>
      </trkpt>
      <trkpt lat="50.26316" lon="4.96576">
        <ele>240.95589928631</ele>
        <time>2017-05-27T13:08:49Z</time>
      </trkpt>
      <trkpt lat="50.26306" lon="4.96541">
        <ele>241.84327860538</ele>
        <time>2017-05-27T13:08:53Z</time>
      </trkpt>
      <trkpt lat="50.26293" lon="4.96497">
        <ele>243.30024650164</ele>
        <time>2017-05-27T13:08:58Z</time>
      </trkpt>
      <trkpt lat="50.26284" lon="4.96462">
        <ele>244.71702424239</ele>
        <time>2017-05-27T13:09:02Z</time>
      </trkpt>
      <trkpt lat="50.26272" lon="4.96418">
        <ele>246.09617192099</ele>
        <time>2017-05-27T13:09:07Z</time>
      </trkpt>
      <trkpt lat="50.26262" lon="4.96385">
        <ele>248.39656901135</ele>
        <time>2017-05-27T13:09:11Z</time>
      </trkpt>
      <trkpt lat="50.26253" lon="4.96346">
        <ele>249.52911845127</ele>
        <time>2017-05-27T13:09:16Z</time>
      </trkpt>
      <trkpt lat="50.26261" lon="4.96313">
        <ele>249.26048684002</ele>
        <time>2017-05-27T13:09:20Z</time>
      </trkpt>
      <trkpt lat="50.26272" lon="4.96276">
        <ele>249.92690946568</ele>
        <time>2017-05-27T13:09:24Z</time>
      </trkpt>
      <trkpt lat="50.26284" lon="4.96236">
        <ele>250.68854899397</ele>
        <time>2017-05-27T13:09:28Z</time>
      </trkpt>
      <trkpt lat="50.26296" lon="4.96195">
        <ele>251.02697782113</ele>
        <time>2017-05-27T13:09:32Z</time>
      </trkpt>
      <trkpt lat="50.26311" lon="4.96142">
        <ele>250.80650227063</ele>
        <time>2017-05-27T13:09:37Z</time>
      </trkpt>
      <trkpt lat="50.26324" lon="4.961">
        <ele>250.35547392014</ele>
        <time>2017-05-27T13:09:41Z</time>
      </trkpt>
      <trkpt lat="50.2634" lon="4.96044">
        <ele>248.84380862449</ele>
        <time>2017-05-27T13:09:46Z</time>
      </trkpt>
      <trkpt lat="50.26353" lon="4.95998">
        <ele>247.52035586033</ele>
        <time>2017-05-27T13:09:50Z</time>
      </trkpt>
      <trkpt lat="50.26369" lon="4.95938">
        <ele>246.1660520942</ele>
        <time>2017-05-27T13:09:55Z</time>
      </trkpt>
      <trkpt lat="50.26382" lon="4.95891">
        <ele>245.25426587215</ele>
        <time>2017-05-27T13:09:59Z</time>
      </trkpt>
      <trkpt lat="50.26391" lon="4.95843">
        <ele>244.89937160649</ele>
        <time>2017-05-27T13:10:03Z</time>
      </trkpt>
      <trkpt lat="50.26399" lon="4.95779">
        <ele>243.47492788551</ele>
        <time>2017-05-27T13:10:08Z</time>
      </trkpt>
      <trkpt lat="50.26404" lon="4.95726">
        <ele>241.88462941579</ele>
        <time>2017-05-27T13:10:12Z</time>
      </trkpt>
      <trkpt lat="50.26412" lon="4.95661">
        <ele>239.53059033992</ele>
        <time>2017-05-27T13:10:17Z</time>
      </trkpt>
      <trkpt lat="50.26419" lon="4.95607">
        <ele>238.10256764611</ele>
        <time>2017-05-27T13:10:21Z</time>
      </trkpt>
      <trkpt lat="50.26427" lon="4.95554">
        <ele>236.45521139816</ele>
        <time>2017-05-27T13:10:25Z</time>
      </trkpt>
      <trkpt lat="50.26435" lon="4.95491">
        <ele>232.94049466323</ele>
        <time>2017-05-27T13:10:30Z</time>
      </trkpt>
      <trkpt lat="50.2644" lon="4.95444">
        <ele>230.63073290578</ele>
        <time>2017-05-27T13:10:34Z</time>
      </trkpt>
      <trkpt lat="50.26447" lon="4.9539">
        <ele>231.69111356906</ele>
        <time>2017-05-27T13:10:39Z</time>
      </trkpt>
      <trkpt lat="50.26452" lon="4.95342">
        <ele>231.72120770746</ele>
        <time>2017-05-27T13:10:43Z</time>
      </trkpt>
      <trkpt lat="50.26459" lon="4.95284">
        <ele>231.00642613884</ele>
        <time>2017-05-27T13:10:48Z</time>
      </trkpt>
      <trkpt lat="50.26466" lon="4.95227">
        <ele>230.7833575486</ele>
        <time>2017-05-27T13:10:53Z</time>
      </trkpt>
      <trkpt lat="50.26472" lon="4.95181">
        <ele>230.17371690351</ele>
        <time>2017-05-27T13:10:57Z</time>
      </trkpt>
      <trkpt lat="50.26479" lon="4.95125">
        <ele>230.16635904222</ele>
        <time>2017-05-27T13:11:02Z</time>
      </trkpt>
      <trkpt lat="50.26484" lon="4.95079">
        <ele>229.51600293448</ele>
        <time>2017-05-27T13:11:06Z</time>
      </trkpt>
      <trkpt lat="50.26491" lon="4.9502">
        <ele>228.42120623208</ele>
        <time>2017-05-27T13:11:11Z</time>
      </trkpt>
      <trkpt lat="50.26498" lon="4.94972">
        <ele>228.76726811699</ele>
        <time>2017-05-27T13:11:15Z</time>
      </trkpt>
      <trkpt lat="50.26505" lon="4.94917">
        <ele>229.40127920243</ele>
        <time>2017-05-27T13:11:20Z</time>
      </trkpt>
      <trkpt lat="50.2651" lon="4.94873">
        <ele>229.06289593615</ele>
        <time>2017-05-27T13:11:24Z</time>
      </trkpt>
      <trkpt lat="50.26518" lon="4.94817">
        <ele>228.6378851445</ele>
        <time>2017-05-27T13:11:29Z</time>
      </trkpt>
      <trkpt lat="50.26526" lon="4.94763">
        <ele>228.50487920633</ele>
        <time>2017-05-27T13:11:34Z</time>
      </trkpt>
      <trkpt lat="50.26532" lon="4.94721">
        <ele>228.2672730017</ele>
        <time>2017-05-27T13:11:38Z</time>
      </trkpt>
      <trkpt lat="50.26538" lon="4.94679">
        <ele>228.28902305318</ele>
        <time>2017-05-27T13:11:42Z</time>
      </trkpt>
      <trkpt lat="50.26544" lon="4.94629">
        <ele>229.50397473499</ele>
        <time>2017-05-27T13:11:47Z</time>
      </trkpt>
      <trkpt lat="50.2655" lon="4.94583">
        <ele>230.93761965233</ele>
        <time>2017-05-27T13:11:52Z</time>
      </trkpt>
      <trkpt lat="50.26555" lon="4.94545">
        <ele>231.9136222777</ele>
        <time>2017-05-27T13:11:56Z</time>
      </trkpt>
      <trkpt lat="50.2656" lon="4.94498">
        <ele>232.88299144972</ele>
        <time>2017-05-27T13:12:01Z</time>
      </trkpt>
      <trkpt lat="50.26566" lon="4.94448">
        <ele>233.3863658143</ele>
        <time>2017-05-27T13:12:06Z</time>
      </trkpt>
      <trkpt lat="50.26572" lon="4.94403">
        <ele>234.01563784522</ele>
        <time>2017-05-27T13:12:10Z</time>
      </trkpt>
      <trkpt lat="50.26579" lon="4.94348">
        <ele>233.63571676721</ele>
        <time>2017-05-27T13:12:15Z</time>
      </trkpt>
      <trkpt lat="50.26586" lon="4.94304">
        <ele>232.97406618862</ele>
        <time>2017-05-27T13:12:19Z</time>
      </trkpt>
      <trkpt lat="50.26599" lon="4.94254">
        <ele>232.48326151243</ele>
        <time>2017-05-27T13:12:24Z</time>
      </trkpt>
      <trkpt lat="50.26601" lon="4.94202">
        <ele>232.3248183808</ele>
        <time>2017-05-27T13:12:29Z</time>
      </trkpt>
      <trkpt lat="50.26602" lon="4.94158">
        <ele>232.14374391476</ele>
        <time>2017-05-27T13:12:33Z</time>
      </trkpt>
      <trkpt lat="50.26608" lon="4.94111">
        <ele>231.99100346356</ele>
        <time>2017-05-27T13:12:37Z</time>
      </trkpt>
      <trkpt lat="50.26615" lon="4.94051">
        <ele>229.94410871193</ele>
        <time>2017-05-27T13:12:42Z</time>
      </trkpt>
      <trkpt lat="50.26624" lon="4.93987">
        <ele>226.66503088816</ele>
        <time>2017-05-27T13:12:47Z</time>
      </trkpt>
      <trkpt lat="50.26631" lon="4.93933">
        <ele>224.48822794756</ele>
        <time>2017-05-27T13:12:51Z</time>
      </trkpt>
      <trkpt lat="50.26639" lon="4.93875">
        <ele>222.22997072048</ele>
        <time>2017-05-27T13:12:55Z</time>
      </trkpt>
      <trkpt lat="50.26647" lon="4.93802">
        <ele>219.57815219046</ele>
        <time>2017-05-27T13:13:00Z</time>
      </trkpt>
      <trkpt lat="50.26652" lon="4.93744">
        <ele>219.27391990534</ele>
        <time>2017-05-27T13:13:04Z</time>
      </trkpt>
      <trkpt lat="50.26656" lon="4.93668">
        <ele>218.43955683754</ele>
        <time>2017-05-27T13:13:09Z</time>
      </trkpt>
      <trkpt lat="50.26658" lon="4.93608">
        <ele>217.23139739077</ele>
        <time>2017-05-27T13:13:13Z</time>
      </trkpt>
      <trkpt lat="50.26659" lon="4.93545">
        <ele>216.21625825508</ele>
        <time>2017-05-27T13:13:17Z</time>
      </trkpt>
      <trkpt lat="50.26661" lon="4.93468">
        <ele>215.03297737626</ele>
        <time>2017-05-27T13:13:22Z</time>
      </trkpt>
      <trkpt lat="50.26662" lon="4.93406">
        <ele>213.07201136834</ele>
        <time>2017-05-27T13:13:26Z</time>
      </trkpt>
      <trkpt lat="50.26664" lon="4.93323">
        <ele>209.24243862615</ele>
        <time>2017-05-27T13:13:31Z</time>
      </trkpt>
      <trkpt lat="50.26666" lon="4.93252">
        <ele>205.1980469759</ele>
        <time>2017-05-27T13:13:35Z</time>
      </trkpt>
      <trkpt lat="50.2667" lon="4.93164">
        <ele>199.10717663664</ele>
        <time>2017-05-27T13:13:40Z</time>
      </trkpt>
      <trkpt lat="50.26677" lon="4.93097">
        <ele>195.30058845017</ele>
        <time>2017-05-27T13:13:44Z</time>
      </trkpt>
      <trkpt lat="50.26686" lon="4.93011">
        <ele>191.54226882732</ele>
        <time>2017-05-27T13:13:49Z</time>
      </trkpt>
      <trkpt lat="50.26693" lon="4.92944">
        <ele>188.40789635331</ele>
        <time>2017-05-27T13:13:53Z</time>
      </trkpt>
      <trkpt lat="50.26703" lon="4.92861">
        <ele>184.58133629436</ele>
        <time>2017-05-27T13:13:58Z</time>
      </trkpt>
      <trkpt lat="50.26712" lon="4.92778">
        <ele>181.70007555446</ele>
        <time>2017-05-27T13:14:03Z</time>
      </trkpt>
      <trkpt lat="50.2672" lon="4.92709">
        <ele>179.45034995494</ele>
        <time>2017-05-27T13:14:07Z</time>
      </trkpt>
      <trkpt lat="50.2673" lon="4.92624">
        <ele>174.62026810552</ele>
        <time>2017-05-27T13:14:12Z</time>
      </trkpt>
      <trkpt lat="50.26735" lon="4.92558">
        <ele>170.27599235233</ele>
        <time>2017-05-27T13:14:16Z</time>
      </trkpt>
      <trkpt lat="50.26723" lon="4.92496">
        <ele>166.35227255949</ele>
        <time>2017-05-27T13:14:20Z</time>
      </trkpt>
      <trkpt lat="50.26693" lon="4.92425">
        <ele>161.9024483898</ele>
        <time>2017-05-27T13:14:25Z</time>
      </trkpt>
      <trkpt lat="50.2667" lon="4.92376">
        <ele>158.92846581654</ele>
        <time>2017-05-27T13:14:29Z</time>
      </trkpt>
      <trkpt lat="50.26647" lon="4.92329">
        <ele>156.18313529691</ele>
        <time>2017-05-27T13:14:34Z</time>
      </trkpt>
      <trkpt lat="50.26623" lon="4.9232">
        <ele>153.24866261768</ele>
        <time>2017-05-27T13:14:38Z</time>
      </trkpt>
      <trkpt lat="50.26603" lon="4.9232">
        <ele>151.45964216279</ele>
        <time>2017-05-27T13:14:42Z</time>
      </trkpt>
      <trkpt lat="50.26587" lon="4.92317">
        <ele>150.92557873216</ele>
        <time>2017-05-27T13:14:46Z</time>
      </trkpt>
      <trkpt lat="50.26573" lon="4.92315">
        <ele>151.11019543537</ele>
        <time>2017-05-27T13:14:50Z</time>
      </trkpt>
      <trkpt lat="50.26555" lon="4.92309">
        <ele>152.48262656637</ele>
        <time>2017-05-27T13:14:55Z</time>
      </trkpt>
      <trkpt lat="50.2654" lon="4.923">
        <ele>153.18679249905</ele>
        <time>2017-05-27T13:15:00Z</time>
      </trkpt>
      <trkpt lat="50.26528" lon="4.92292">
        <ele>153.86876020748</ele>
        <time>2017-05-27T13:15:04Z</time>
      </trkpt>
      <trkpt lat="50.26515" lon="4.92287">
        <ele>154.58270605269</ele>
        <time>2017-05-27T13:15:08Z</time>
      </trkpt>
      <trkpt lat="50.26497" lon="4.92285">
        <ele>158.72225119993</ele>
        <time>2017-05-27T13:15:13Z</time>
      </trkpt>
      <trkpt lat="50.26483" lon="4.92286">
        <ele>162.76781705897</ele>
        <time>2017-05-27T13:15:17Z</time>
      </trkpt>
      <trkpt lat="50.26466" lon="4.92295">
        <ele>165.83511213794</ele>
        <time>2017-05-27T13:15:22Z</time>
      </trkpt>
      <trkpt lat="50.26452" lon="4.9231">
        <ele>167.76893883651</ele>
        <time>2017-05-27T13:15:26Z</time>
      </trkpt>
      <trkpt lat="50.26439" lon="4.92335">
        <ele>168.26877976512</ele>
        <time>2017-05-27T13:15:31Z</time>
      </trkpt>
      <trkpt lat="50.26429" lon="4.92353">
        <ele>170.10299738366</ele>
        <time>2017-05-27T13:15:35Z</time>
      </trkpt>
      <trkpt lat="50.26414" lon="4.92372">
        <ele>171.92678648869</ele>
        <time>2017-05-27T13:15:40Z</time>
      </trkpt>
      <trkpt lat="50.26395" lon="4.92383">
        <ele>174.50461735093</ele>
        <time>2017-05-27T13:15:45Z</time>
      </trkpt>
      <trkpt lat="50.26376" lon="4.92381">
        <ele>175.61645816013</ele>
        <time>2017-05-27T13:15:50Z</time>
      </trkpt>
      <trkpt lat="50.26362" lon="4.92373">
        <ele>176.45414007331</ele>
        <time>2017-05-27T13:15:54Z</time>
      </trkpt>
      <trkpt lat="50.26347" lon="4.92365">
        <ele>177.28071288604</ele>
        <time>2017-05-27T13:15:58Z</time>
      </trkpt>
      <trkpt lat="50.26327" lon="4.92353">
        <ele>177.99890920114</ele>
        <time>2017-05-27T13:16:03Z</time>
      </trkpt>
      <trkpt lat="50.26311" lon="4.92345">
        <ele>179.38195393105</ele>
        <time>2017-05-27T13:16:07Z</time>
      </trkpt>
      <trkpt lat="50.26292" lon="4.92335">
        <ele>182.15206344081</ele>
        <time>2017-05-27T13:16:11Z</time>
      </trkpt>
      <trkpt lat="50.2627" lon="4.92323">
        <ele>182.84566734525</ele>
        <time>2017-05-27T13:16:16Z</time>
      </trkpt>
      <trkpt lat="50.26253" lon="4.92314">
        <ele>183.32854439587</ele>
        <time>2017-05-27T13:16:20Z</time>
      </trkpt>
      <trkpt lat="50.26237" lon="4.92304">
        <ele>184.39817817263</ele>
        <time>2017-05-27T13:16:24Z</time>
      </trkpt>
      <trkpt lat="50.26218" lon="4.92292">
        <ele>185.13208014087</ele>
        <time>2017-05-27T13:16:29Z</time>
      </trkpt>
      <trkpt lat="50.26198" lon="4.92278">
        <ele>186.17693827502</ele>
        <time>2017-05-27T13:16:34Z</time>
      </trkpt>
      <trkpt lat="50.26179" lon="4.92266">
        <ele>187.78290383369</ele>
        <time>2017-05-27T13:16:38Z</time>
      </trkpt>
      <trkpt lat="50.2616" lon="4.92253">
        <ele>188.65741694368</ele>
        <time>2017-05-27T13:16:43Z</time>
      </trkpt>
      <trkpt lat="50.2614" lon="4.92238">
        <ele>188.77454586727</ele>
        <time>2017-05-27T13:16:47Z</time>
      </trkpt>
      <trkpt lat="50.26119" lon="4.92225">
        <ele>188.85034829887</ele>
        <time>2017-05-27T13:16:51Z</time>
      </trkpt>
      <trkpt lat="50.26098" lon="4.9221">
        <ele>188.71544289055</ele>
        <time>2017-05-27T13:16:55Z</time>
      </trkpt>
      <trkpt lat="50.26075" lon="4.92196">
        <ele>187.78232463838</ele>
        <time>2017-05-27T13:17:00Z</time>
      </trkpt>
      <trkpt lat="50.26047" lon="4.92179">
        <ele>187.12768508322</ele>
        <time>2017-05-27T13:17:05Z</time>
      </trkpt>
      <trkpt lat="50.26025" lon="4.92165">
        <ele>186.24354290519</ele>
        <time>2017-05-27T13:17:09Z</time>
      </trkpt>
      <trkpt lat="50.26001" lon="4.9216">
        <ele>185.34165914651</ele>
        <time>2017-05-27T13:17:13Z</time>
      </trkpt>
      <trkpt lat="50.25973" lon="4.92168">
        <ele>184.91917436153</ele>
        <time>2017-05-27T13:17:18Z</time>
      </trkpt>
      <trkpt lat="50.2595" lon="4.9218">
        <ele>184.55396930222</ele>
        <time>2017-05-27T13:17:22Z</time>
      </trkpt>
      <trkpt lat="50.25925" lon="4.92195">
        <ele>186.00480470564</ele>
        <time>2017-05-27T13:17:27Z</time>
      </trkpt>
      <trkpt lat="50.25905" lon="4.92205">
        <ele>187.17017718462</ele>
        <time>2017-05-27T13:17:31Z</time>
      </trkpt>
      <trkpt lat="50.2589" lon="4.92218">
        <ele>188.53146462632</ele>
        <time>2017-05-27T13:17:35Z</time>
      </trkpt>
      <trkpt lat="50.25887" lon="4.9225">
        <ele>188.50676493409</ele>
        <time>2017-05-27T13:17:40Z</time>
      </trkpt>
      <trkpt lat="50.25893" lon="4.92273">
        <ele>188.16042081135</ele>
        <time>2017-05-27T13:17:44Z</time>
      </trkpt>
      <trkpt lat="50.259" lon="4.92297">
        <ele>188.13902721687</ele>
        <time>2017-05-27T13:17:49Z</time>
      </trkpt>
      <trkpt lat="50.25898" lon="4.92319">
        <ele>188.10906245819</ele>
        <time>2017-05-27T13:17:53Z</time>
      </trkpt>
      <trkpt lat="50.25884" lon="4.92338">
        <ele>188.41144214659</ele>
        <time>2017-05-27T13:17:58Z</time>
      </trkpt>
      <trkpt lat="50.25878" lon="4.92334">
        <ele>188.7707147736</ele>
        <time>2017-05-27T13:18:02Z</time>
      </trkpt>
      <trkpt lat="50.25869" lon="4.92323">
        <ele>189.1052420832</ele>
        <time>2017-05-27T13:18:06Z</time>
      </trkpt>
      <trkpt lat="50.25864" lon="4.92316">
        <ele>189.86019968111</ele>
        <time>2017-05-27T13:19:03Z</time>
      </trkpt>
      <trkpt lat="50.25864" lon="4.92316">
        <ele>189.86019968111</ele>
        <time>2017-05-27T13:19:04Z</time>
      </trkpt>
    </trkseg>
  </trk>
</gpx>